Accueil
METAR-TAF:

METAR-TAF

Aéroports :

Base aérienne 118 Mont-de-Marsan

Mont-De-Marsan, France

latitude: 43-55N, longitude: 000-30W, altitude: 62 m

Observation

Le bulletin a été fait il y a 11 minutes, à 12:30 UTC
Vent 8 kt de est/nord-est, variant entre nord/nord-est et est
Température 29°C
Humidité 52%
Pression 1013 hPa
Visibilité 10 km ou plus

METAR: LFBM 181230Z AUTO 06008KT 030V100 9999 ///CB 29/18 Q1013 BECMG NSC

Heure: 14:41 (12:41 UTC)

Prévision

Le bulletin a été fait il y a 4 heures et 41 minutes, à 08:00 UTC
Prévision valable du 18 à 09 UTC au 19 à 09 UTC
Vent 10 kt de est
Visibilité 10 km ou plus
pas de nuages en-dessous de 1500 mètres et pas de cumulonimbus.
Evoluant progressivement
du 19 à 01 UTC au 19 à 03 UTC
Vent 3 kt de sud-ouest
Temporairement
du 19 à 05 UTC au 19 à 08 UTC
Nuages fragmentés à une hauteur de 400 ft

TAF: LFBM 180800Z 1809/1909 08010KT CAVOK BECMG 1901/1903 22003KT TEMPO 1905/1908 BKN004

Observations et prévisions météorologiques de plus de 4000 aéroports (messages METAR et TAF).

Les stations disponibles sont représentées par des disques jaunes et rouges sur la carte.

Passer la souris dessus pour voir le nom de la station.

Cliquer dessus pour voir les observations et prévisions météorologiques.

Pour changer de carte: cliquez sur les boutons verts avec une croix noire pour zoomer, sur le bouton vert avec un tiret pour effectuer un zoom arrière, ou sur les flèches vertes pour les cartes adjacentes.


METAR-TAF: